createdAt,value
2019-05-10T00:00:46.268Z,17.30
2019-05-10T00:03:35.012Z,18.15
2019-05-10T00:06:23.759Z,16.52
2019-05-10T00:08:53.878Z,19.12
2019-05-10T00:11:38.843Z,20.27
2019-05-10T00:14:29.341Z,18.00
2019-05-10T00:17:01.717Z,13.70
2019-05-10T00:19:32.466Z,13.35
2019-05-10T00:22:03.403Z,14.45
2019-05-10T00:24:35.962Z,14.78
2019-05-10T00:27:08.434Z,11.83
2019-05-10T00:29:39.268Z,10.45
2019-05-10T00:32:10.116Z,11.88
2019-05-10T00:34:40.991Z,12.95
2019-05-10T00:37:11.967Z,10.78
2019-05-10T00:39:42.805Z,12.88
2019-05-10T00:42:13.847Z,13.90
2019-05-10T00:44:44.683Z,12.23
2019-05-10T00:47:15.945Z,11.03
2019-05-10T00:49:46.975Z,10.45
2019-05-10T00:52:18.119Z,11.95
2019-05-10T00:54:49.057Z,16.35
2019-05-10T00:57:21.141Z,11.85
2019-05-10T00:59:51.734Z,12.13
2019-05-10T01:02:23.012Z,15.20
2019-05-10T01:04:54.122Z,15.32
2019-05-10T01:07:25.068Z,12.45
2019-05-10T01:09:55.944Z,12.98
2019-05-10T01:12:27.773Z,14.45
2019-05-10T01:15:00.202Z,14.90
2019-05-10T01:17:31.166Z,17.85
2019-05-10T01:20:03.639Z,14.53
2019-05-10T01:22:34.374Z,17.05
2019-05-10T01:25:08.273Z,17.75
2019-05-10T01:27:39.210Z,14.73
2019-05-10T01:30:11.087Z,18.32
2019-05-10T01:32:41.621Z,19.85
2019-05-10T01:35:13.975Z,21.05
2019-05-10T01:37:45.178Z,19.12
2019-05-10T01:40:16.055Z,18.00
2019-05-10T01:42:47.808Z,20.92
2019-05-10T01:45:18.741Z,19.05
2019-05-10T01:47:50.293Z,20.55
2019-05-10T01:50:21.025Z,23.80
2019-05-10T01:52:51.863Z,27.13
2019-05-10T01:55:22.907Z,29.67
2019-05-10T01:57:53.646Z,25.92
2019-05-10T02:00:24.777Z,20.37
2019-05-10T02:02:55.668Z,23.85
2019-05-10T02:05:26.549Z,28.50
2019-05-10T02:07:58.010Z,26.75
2019-05-10T02:10:29.858Z,23.52
2019-05-10T02:13:00.462Z,24.02
2019-05-10T02:15:31.530Z,25.10
2019-05-10T02:18:02.468Z,27.13
2019-05-10T02:20:36.070Z,28.17
2019-05-10T02:23:07.619Z,17.57
2019-05-10T02:25:38.242Z,26.77
2019-05-10T02:28:09.805Z,25.25
2019-05-10T02:30:42.218Z,29.87
2019-05-10T02:33:13.119Z,33.13
2019-05-10T02:35:44.146Z,25.15
2019-05-10T02:38:15.079Z,26.80
2019-05-10T02:40:45.913Z,26.65
2019-05-10T02:43:16.852Z,20.52
2019-05-10T02:45:47.692Z,27.75
2019-05-10T02:48:18.746Z,22.17
2019-05-10T02:50:49.769Z,30.12
2019-05-10T02:53:20.373Z,28.42
2019-05-10T02:55:52.151Z,26.17
2019-05-10T02:58:23.447Z,29.02
2019-05-10T03:00:56.049Z,30.97
2019-05-10T03:03:28.856Z,26.50
2019-05-10T03:06:04.400Z,28.27
2019-05-10T03:08:54.589Z,28.17
2019-05-10T03:11:28.394Z,28.40
2019-05-10T03:14:02.381Z,24.02
2019-05-10T03:16:36.719Z,22.93
2019-05-10T03:19:09.090Z,26.45
2019-05-10T03:21:43.001Z,24.27
2019-05-10T03:24:13.940Z,25.37
2019-05-10T03:26:50.934Z,25.12
2019-05-10T03:29:18.998Z,20.65
2019-05-10T03:31:50.041Z,22.37
2019-05-10T03:34:21.881Z,20.43
2019-05-10T03:36:53.023Z,21.52
2019-05-10T03:39:23.964Z,19.02
2019-05-10T03:41:54.745Z,19.98
2019-05-10T03:44:25.628Z,19.15
2019-05-10T03:47:00.258Z,17.57
2019-05-10T03:49:30.990Z,17.82
2019-05-10T03:52:01.818Z,24.02
2019-05-10T03:54:32.862Z,24.67
2019-05-10T03:57:13.274Z,21.73
2019-05-10T03:59:36.155Z,22.27
2019-05-10T04:02:08.536Z,23.00
2019-05-10T04:04:39.167Z,23.50
2019-05-10T04:07:10.102Z,29.65
2019-05-10T04:09:42.168Z,24.20
2019-05-10T04:12:13.002Z,28.25
2019-05-10T04:14:46.204Z,27.48
2019-05-10T04:17:17.131Z,23.47
2019-05-10T04:19:50.224Z,24.10
2019-05-10T04:22:21.688Z,27.30
2019-05-10T04:24:52.606Z,25.92
2019-05-10T04:27:32.447Z,26.93
2019-05-10T04:29:58.472Z,23.80
2019-05-10T04:32:29.308Z,23.83
2019-05-10T04:35:00.346Z,24.52
2019-05-10T04:37:31.285Z,36.05
2019-05-10T04:40:02.329Z,27.90
2019-05-10T04:42:33.270Z,29.20
2019-05-10T04:45:07.182Z,33.20
2019-05-10T04:47:40.557Z,23.10
2019-05-10T04:50:11.806Z,25.27
2019-05-10T04:52:42.338Z,20.97
2019-05-10T04:55:13.267Z,29.85
2019-05-10T04:57:50.547Z,20.25
2019-05-10T05:00:16.549Z,20.60
2019-05-10T05:02:47.434Z,22.75
2019-05-10T05:05:18.247Z,25.05
2019-05-10T05:07:49.388Z,37.48
2019-05-10T05:10:21.965Z,24.65
2019-05-10T05:12:52.594Z,24.60
2019-05-10T05:15:23.633Z,27.17
2019-05-10T05:17:54.778Z,28.73
2019-05-10T05:20:25.919Z,22.75
2019-05-10T05:22:56.880Z,24.00
2019-05-10T05:25:27.997Z,23.22
2019-05-10T05:28:07.898Z,28.32
2019-05-10T05:30:31.533Z,27.67
2019-05-10T05:33:02.345Z,23.75
2019-05-10T05:35:33.793Z,28.02
2019-05-10T05:38:04.472Z,27.32
2019-05-10T05:40:35.565Z,35.15
2019-05-10T05:43:09.718Z,34.33
2019-05-10T05:45:40.461Z,25.35
2019-05-10T05:48:16.079Z,33.35
2019-05-10T05:50:44.539Z,26.80
2019-05-10T05:53:17.217Z,28.77
2019-05-10T05:55:48.048Z,29.10
2019-05-10T05:58:26.663Z,21.42
2019-05-10T06:00:51.873Z,16.82
2019-05-10T06:03:29.391Z,18.55
2019-05-10T06:05:56.816Z,15.35
2019-05-10T06:08:30.079Z,14.60
2019-05-10T06:11:00.296Z,15.05
2019-05-10T06:13:32.585Z,19.12
2019-05-10T06:16:06.363Z,16.12
2019-05-10T06:18:41.673Z,12.70
2019-05-10T06:21:10.262Z,21.30
2019-05-10T06:23:41.734Z,20.25
2019-05-10T06:26:21.143Z,19.85
2019-05-10T06:28:58.344Z,13.13
2019-05-10T06:31:18.373Z,13.45
2019-05-10T06:33:49.001Z,14.93
2019-05-10T06:36:19.858Z,17.52
2019-05-10T06:38:51.083Z,12.28
2019-05-10T06:41:22.391Z,14.33
2019-05-10T06:43:54.124Z,10.45
2019-05-10T07:01:20.311Z,14.13
2019-05-10T07:03:51.165Z,9.38
2019-05-10T07:06:22.120Z,15.70
2019-05-10T07:08:58.058Z,11.60
2019-05-10T07:11:25.331Z,18.27
2019-05-10T07:13:56.742Z,12.10
2019-05-10T07:16:27.815Z,15.18
2019-05-10T07:19:00.456Z,24.20
2019-05-10T07:21:32.574Z,14.73
2019-05-10T07:24:04.859Z,12.35
2019-05-10T07:26:35.474Z,15.20
2019-05-10T07:29:07.031Z,12.40
2019-05-10T07:31:37.806Z,15.88
2019-05-10T07:34:09.618Z,30.23
2019-05-10T07:36:41.452Z,19.10
2019-05-10T07:39:12.289Z,22.85
2019-05-10T07:41:43.235Z,23.15
2019-05-10T07:44:14.272Z,18.10
2019-05-10T07:46:47.002Z,24.60
2019-05-10T07:49:17.629Z,19.52
2019-05-10T07:51:48.620Z,18.57
2019-05-10T07:54:19.454Z,19.87
2019-05-10T07:56:50.386Z,20.17
2019-05-10T07:59:25.299Z,17.57
2019-05-10T08:01:54.110Z,13.48
2019-05-10T08:04:29.121Z,10.70
2019-05-10T08:06:59.710Z,20.15
2019-05-10T08:09:31.817Z,23.38
2019-05-10T08:12:05.098Z,16.37
2019-05-10T08:14:39.366Z,13.50
2019-05-10T08:17:10.074Z,9.85
2019-05-10T08:19:41.111Z,12.75
2019-05-10T08:22:12.904Z,15.70
2019-05-10T08:24:54.479Z,10.78
2019-05-10T08:27:18.439Z,8.60
2019-05-10T08:30:15.921Z,10.72
2019-05-10T08:32:25.648Z,14.05
2019-05-10T08:34:56.979Z,9.68
2019-05-10T08:37:36.013Z,8.68
2019-05-10T08:40:03.240Z,11.88
2019-05-10T08:42:44.239Z,9.65
2019-05-10T08:45:09.173Z,13.62
2019-05-10T08:47:42.452Z,9.43
2019-05-10T08:50:28.789Z,9.60
2019-05-10T08:52:46.671Z,15.30
2019-05-10T08:55:17.892Z,11.30
2019-05-10T08:57:52.342Z,18.92
2019-05-10T09:00:41.484Z,16.85
2019-05-10T09:03:00.881Z,14.75
2019-05-10T09:05:31.310Z,16.40
2019-05-10T09:08:05.449Z,16.07
2019-05-10T09:10:34.063Z,24.75
2019-05-10T09:13:05.002Z,22.62
2019-05-10T09:15:43.264Z,22.40
2019-05-10T09:18:08.273Z,18.77
2019-05-10T09:20:42.146Z,18.27
2019-05-10T09:25:43.986Z,19.75
2019-05-10T09:28:17.135Z,13.80
2019-05-10T09:31:00.012Z,10.93
2019-05-10T09:33:22.418Z,12.43
2019-05-10T09:35:55.040Z,13.35
2019-05-10T09:38:28.749Z,12.28
2019-05-10T09:40:59.577Z,14.25
2019-05-10T09:43:31.927Z,12.35
2019-05-10T09:46:02.920Z,8.98
2019-05-10T09:48:33.915Z,10.75
2019-05-10T09:51:06.977Z,10.23
2019-05-10T09:53:38.466Z,13.28
2019-05-10T09:56:09.369Z,10.98
2019-05-10T09:58:40.388Z,16.15
2019-05-10T10:01:18.137Z,13.70
2019-05-10T10:03:44.969Z,8.23
2019-05-10T10:06:16.715Z,9.20
2019-05-10T10:08:53.179Z,10.90
2019-05-10T10:11:21.545Z,9.90
2019-05-10T10:13:59.137Z,14.23
2019-05-10T10:16:28.275Z,11.15
2019-05-10T10:18:59.275Z,7.53
2019-05-10T10:21:34.940Z,14.38
2019-05-10T10:24:12.712Z,9.80
2019-05-10T10:26:34.847Z,8.75
2019-05-10T10:29:07.292Z,9.10
2019-05-10T10:31:48.456Z,11.48
2019-05-10T10:34:10.488Z,13.08
2019-05-10T10:36:43.991Z,9.75
2019-05-10T10:39:16.879Z,9.68
2019-05-10T10:41:48.175Z,10.10
2019-05-10T10:44:19.498Z,12.30
2019-05-10T10:46:51.154Z,9.38
2019-05-10T10:49:23.186Z,10.53
2019-05-10T10:51:57.205Z,12.88
2019-05-10T10:54:36.263Z,9.08
2019-05-10T10:57:00.432Z,11.40
2019-05-10T10:59:31.478Z,11.40
2019-05-10T11:02:30.885Z,12.80
2019-05-10T11:04:40.396Z,33.73
2019-05-10T11:09:41.803Z,7.17
2019-05-10T11:12:14.630Z,10.48
2019-05-10T11:14:46.923Z,9.33
2019-05-10T11:17:19.198Z,16.02
2019-05-10T11:19:50.136Z,7.15
2019-05-10T11:22:21.552Z,9.10
2019-05-10T11:25:00.724Z,9.35
2019-05-10T11:27:24.490Z,15.65
2019-05-10T11:29:55.742Z,8.75
2019-05-10T11:32:26.154Z,6.40
2019-05-10T11:34:58.623Z,6.42
2019-05-10T11:37:32.873Z,6.60
2019-05-10T11:40:02.029Z,7.87
2019-05-10T11:42:37.572Z,8.55
2019-05-10T11:45:07.084Z,5.97
2019-05-10T11:47:37.836Z,11.85
2019-05-10T11:50:10.620Z,13.10
2019-05-10T11:52:42.963Z,7.80
2019-05-10T11:55:13.909Z,8.88
2019-05-10T11:57:59.881Z,9.20
2019-05-10T12:00:28.224Z,10.08
2019-05-10T12:03:11.224Z,12.03
2019-05-10T12:05:26.736Z,9.95
2019-05-10T12:07:57.253Z,4.67
2019-05-10T12:10:28.339Z,13.45
2019-05-10T12:13:11.384Z,5.20
2019-05-10T12:15:32.165Z,43.35
2019-05-10T12:18:04.962Z,8.78
2019-05-10T12:36:22.362Z,8.25
2019-05-10T12:38:43.645Z,6.85
2019-05-10T12:41:15.265Z,7.80
2019-05-10T12:43:48.290Z,7.42
2019-05-10T12:46:20.724Z,4.70
2019-05-10T12:48:54.270Z,3.40
2019-05-10T12:51:24.971Z,7.20
2019-05-10T12:53:55.528Z,10.18
2019-05-10T12:56:26.570Z,2.70
2019-05-10T12:58:59.704Z,8.58
2019-05-10T13:01:33.136Z,4.00
2019-05-10T13:04:13.317Z,4.58
2019-05-10T13:07:17.013Z,6.95
2019-05-10T13:09:50.061Z,4.83
2019-05-10T13:12:20.453Z,2.67
2019-05-10T13:14:53.214Z,5.67
2019-05-10T13:17:24.081Z,3.33
2019-05-10T13:19:58.645Z,2.17
2019-05-10T13:22:37.108Z,3.22
2019-05-10T13:24:59.317Z,4.85
2019-05-10T13:27:30.034Z,4.85
2019-05-10T13:30:02.549Z,2.40
2019-05-10T13:32:33.473Z,3.62
2019-05-10T13:35:04.067Z,2.98
2019-05-10T13:37:39.232Z,3.30
2019-05-10T13:40:11.167Z,7.75
2019-05-10T13:42:45.674Z,7.60
2019-05-10T13:45:15.217Z,4.72
2019-05-10T13:47:46.060Z,5.28
2019-05-10T13:50:17.173Z,7.10
2019-05-10T13:52:48.321Z,4.92
2019-05-10T13:55:19.127Z,8.23
2019-05-10T13:57:54.027Z,10.85
2019-05-10T14:00:33.105Z,4.40
2019-05-10T14:02:56.364Z,15.17
2019-05-10T14:05:27.310Z,8.20
2019-05-10T14:07:57.833Z,3.90
2019-05-10T14:10:29.684Z,8.80
2019-05-10T14:13:02.549Z,3.75
2019-05-10T14:15:32.284Z,6.92
2019-05-10T14:18:03.120Z,5.33
2019-05-10T14:20:34.437Z,4.05
2019-05-10T14:23:05.800Z,6.30
2019-05-10T14:25:39.028Z,7.65
2019-05-10T14:28:15.440Z,9.75
2019-05-10T14:30:46.871Z,5.97
2019-05-10T14:35:47.353Z,6.00
2019-05-10T14:38:18.912Z,14.18
2019-05-10T14:40:52.612Z,9.53
2019-05-10T14:43:23.514Z,13.78
2019-05-10T14:45:54.332Z,7.75
2019-05-10T14:48:28.931Z,8.08
2019-05-10T14:51:03.018Z,7.05
2019-05-10T14:53:30.899Z,6.50
2019-05-10T14:56:02.130Z,7.45
2019-05-10T14:58:32.898Z,10.78
2019-05-10T15:01:03.995Z,5.80
2019-05-10T15:03:40.804Z,9.30
2019-05-10T15:06:06.902Z,6.95
2019-05-10T15:08:39.981Z,8.85
2019-05-10T15:11:10.612Z,8.37
2019-05-10T15:13:41.367Z,9.55
2019-05-10T15:16:18.630Z,10.50
2019-05-10T15:18:44.660Z,7.40
2019-05-10T15:21:15.348Z,9.83
2019-05-10T15:23:46.158Z,12.95
2019-05-10T15:26:17.057Z,14.83
2019-05-10T15:28:47.998Z,13.62
2019-05-10T15:31:23.639Z,9.48
2019-05-10T15:33:51.915Z,10.63
2019-05-10T15:36:29.108Z,9.10
2019-05-10T15:38:56.037Z,7.83
2019-05-10T15:41:26.685Z,8.15
2019-05-10T15:43:57.509Z,7.30
2019-05-10T15:46:36.207Z,7.62
2019-05-10T15:49:01.016Z,13.10
2019-05-10T15:51:36.252Z,8.68
2019-05-10T15:54:07.480Z,8.45
2019-05-10T15:56:41.619Z,6.08
2019-05-10T15:59:12.924Z,8.60
2019-05-10T16:01:45.420Z,7.45
2019-05-10T16:04:15.038Z,6.10
2019-05-10T16:06:45.671Z,5.22
2019-05-10T16:09:17.796Z,7.20
2019-05-10T16:11:48.771Z,10.72
2019-05-10T16:14:19.917Z,9.68
2019-05-10T16:16:51.776Z,6.45
2019-05-10T16:19:22.509Z,10.28
2019-05-10T16:21:54.691Z,6.78
2019-05-10T16:24:28.103Z,7.50
2019-05-10T16:29:33.837Z,5.05
2019-05-10T16:32:02.626Z,4.37
2019-05-10T16:34:34.266Z,5.15
2019-05-10T16:37:04.811Z,5.20
2019-05-10T16:39:35.439Z,4.85
2019-05-10T16:42:06.136Z,3.95
2019-05-10T16:44:37.200Z,6.80
2019-05-10T16:47:07.426Z,26.95
2019-05-10T16:49:38.463Z,7.22
2019-05-10T16:52:09.296Z,9.10
2019-05-10T16:54:41.772Z,7.60
2019-05-10T16:57:12.397Z,5.60
2019-05-10T16:59:43.231Z,9.68
2019-05-10T17:02:14.021Z,9.15
2019-05-10T17:04:44.963Z,12.95
2019-05-10T17:07:18.825Z,7.67
2019-05-10T17:09:54.776Z,6.00
2019-05-10T17:12:27.590Z,7.00
2019-05-10T17:15:02.033Z,6.95
2019-05-10T17:17:31.379Z,13.50
2019-05-10T17:20:07.344Z,19.37
2019-05-10T17:22:35.912Z,11.50
2019-05-10T17:25:09.304Z,9.58
2019-05-10T17:27:42.693Z,11.10
2019-05-10T17:30:13.665Z,16.40
2019-05-10T17:32:44.213Z,13.85
2019-05-10T17:35:15.610Z,29.92
2019-05-10T17:37:46.545Z,28.87
2019-05-10T17:40:17.765Z,24.77
2019-05-10T17:42:51.509Z,28.42
2019-05-10T17:45:22.036Z,27.27
2019-05-10T17:47:53.097Z,27.90
2019-05-10T17:50:23.895Z,24.32
2019-05-10T17:52:54.854Z,23.30
2019-05-10T17:55:25.873Z,36.73
2019-05-10T17:57:56.818Z,27.58
2019-05-10T18:00:28.372Z,24.80
2019-05-10T18:03:00.120Z,16.93
2019-05-10T18:05:31.157Z,11.25
2019-05-10T18:08:03.022Z,16.52
2019-05-10T18:10:33.645Z,19.15
2019-05-10T18:13:05.277Z,17.92
2019-05-10T18:15:36.032Z,24.23
2019-05-10T18:18:08.514Z,18.17
2019-05-10T18:20:41.990Z,15.18
2019-05-10T18:23:20.131Z,27.42
2019-05-10T18:25:44.799Z,25.45
2019-05-10T18:28:18.946Z,27.87
2019-05-10T18:30:48.310Z,26.65
2019-05-10T18:33:19.552Z,22.93
2019-05-10T18:35:52.713Z,22.13
2019-05-10T18:38:24.104Z,23.57
2019-05-10T18:40:54.718Z,17.52
2019-05-10T18:43:25.691Z,24.35
2019-05-10T18:46:01.245Z,16.17
2019-05-10T18:48:30.096Z,20.72
2019-05-10T18:51:00.968Z,23.60
2019-05-10T18:53:31.791Z,23.45
2019-05-10T18:56:02.806Z,21.35
2019-05-10T18:58:33.662Z,19.85
2019-05-10T19:01:04.741Z,28.32
2019-05-10T19:03:35.934Z,17.65
2019-05-10T19:06:10.844Z,25.02
2019-05-10T19:08:38.911Z,26.17
2019-05-10T19:11:10.003Z,21.10
2019-05-10T19:13:48.004Z,16.20
2019-05-10T19:16:13.477Z,16.90
2019-05-10T19:18:46.148Z,15.48
2019-05-10T19:21:16.884Z,23.32
2019-05-10T19:23:52.333Z,12.98
2019-05-10T19:26:23.902Z,15.98
2019-05-10T19:28:58.931Z,13.35
2019-05-10T19:31:31.821Z,17.10
2019-05-10T19:34:00.889Z,16.82
2019-05-10T19:36:31.826Z,23.38
2019-05-10T19:39:04.813Z,18.23
2019-05-10T19:41:35.748Z,22.27
2019-05-10T19:44:07.094Z,25.32
2019-05-10T19:46:40.568Z,36.05
2019-05-10T19:51:48.373Z,33.13
2019-05-10T19:54:19.651Z,31.68
2019-05-10T19:56:49.440Z,32.55
2019-05-10T19:59:21.105Z,26.57
2019-05-10T20:01:52.157Z,28.62
2019-05-10T20:04:22.991Z,29.77
2019-05-10T20:06:53.781Z,17.37
2019-05-10T20:09:24.991Z,22.07
2019-05-10T20:11:55.932Z,18.77
2019-05-10T20:14:26.624Z,23.02
2019-05-10T20:16:59.321Z,18.20
2019-05-10T20:19:30.173Z,15.90
2019-05-10T20:22:01.021Z,14.73
2019-05-10T20:24:32.023Z,15.40
2019-05-10T20:27:04.428Z,14.65
2019-05-10T20:29:35.229Z,13.22
2019-05-10T20:32:06.267Z,13.32
2019-05-10T20:34:37.610Z,13.80
2019-05-10T20:37:08.546Z,9.58
2019-05-10T20:39:39.281Z,15.85
2019-05-10T20:42:11.655Z,15.70
2019-05-10T20:44:42.384Z,16.25
2019-05-10T20:47:13.943Z,13.50
2019-05-10T20:49:45.278Z,15.25
2019-05-10T20:52:18.612Z,15.35
2019-05-10T20:54:49.443Z,12.00
2019-05-10T20:57:21.062Z,13.80
2019-05-10T20:59:51.842Z,14.28
2019-05-10T21:02:24.781Z,13.43
2019-05-10T21:04:57.259Z,11.00
2019-05-10T21:07:29.114Z,17.62
2019-05-10T21:10:00.057Z,9.98
2019-05-10T21:12:30.685Z,12.82
2019-05-10T21:15:01.865Z,13.88
2019-05-10T21:17:32.865Z,13.98
2019-05-10T21:20:04.167Z,11.55
2019-05-10T21:22:34.840Z,12.07
2019-05-10T21:25:07.519Z,10.03
2019-05-10T21:27:37.938Z,11.65
2019-05-10T21:30:09.397Z,12.63
2019-05-10T21:32:39.927Z,10.38
2019-05-10T21:35:13.620Z,11.05
2019-05-10T21:37:44.502Z,9.38
2019-05-10T21:40:15.392Z,10.40
2019-05-10T21:42:47.660Z,9.10
2019-05-10T21:45:19.932Z,9.28
2019-05-10T21:47:51.994Z,6.58
2019-05-10T21:50:23.690Z,8.20
2019-05-10T21:52:54.904Z,7.45
2019-05-10T21:55:25.682Z,6.70
2019-05-10T21:57:57.284Z,6.40
2019-05-10T22:00:30.678Z,7.28
2019-05-10T22:03:01.510Z,7.25
2019-05-10T22:05:33.050Z,8.80
2019-05-10T22:08:03.813Z,5.22
2019-05-10T22:10:35.556Z,5.50
2019-05-10T22:13:06.585Z,7.22
2019-05-10T22:15:38.238Z,8.43
2019-05-10T22:18:08.743Z,5.08
2019-05-10T22:20:41.242Z,8.00
2019-05-10T22:23:11.981Z,10.00
2019-05-10T22:25:42.844Z,9.58
2019-05-10T22:28:13.507Z,6.78
2019-05-10T22:30:44.698Z,5.92
2019-05-10T22:33:15.729Z,10.35
2019-05-10T22:35:47.995Z,8.58
2019-05-10T22:38:18.837Z,7.42
2019-05-10T22:40:52.126Z,9.70
2019-05-10T22:43:23.880Z,9.63
2019-05-10T22:45:54.301Z,13.00
2019-05-10T22:48:25.175Z,8.35
2019-05-10T22:50:56.176Z,8.85
2019-05-10T22:53:26.943Z,10.25
2019-05-10T22:55:57.861Z,8.83
2019-05-10T22:58:31.956Z,9.50
2019-05-10T23:01:06.477Z,12.63
2019-05-10T23:03:37.424Z,9.13
2019-05-10T23:06:08.509Z,6.37
2019-05-10T23:08:39.395Z,7.50
2019-05-10T23:11:13.503Z,5.53
2019-05-10T23:16:14.348Z,6.65
2019-05-10T23:18:46.209Z,6.20
2019-05-10T23:21:16.839Z,5.15
2019-05-10T23:23:47.470Z,6.97
2019-05-10T23:26:18.813Z,5.70
2019-05-10T23:28:49.215Z,6.50
2019-05-10T23:31:20.793Z,5.72
2019-05-10T23:33:51.325Z,4.22
2019-05-10T23:36:24.184Z,5.60
2019-05-10T23:38:54.835Z,4.85
2019-05-10T23:41:25.668Z,4.42
2019-05-10T23:43:58.039Z,4.80
2019-05-10T23:46:32.008Z,5.28
2019-05-10T23:49:02.794Z,5.15
2019-05-10T23:51:34.127Z,5.72
2019-05-10T23:54:05.889Z,5.75
2019-05-10T23:56:36.704Z,7.00
2019-05-10T23:59:07.850Z,8.93
